• Join FlightAware (Why Join?)
  • Login
  • US Flag 
09:57AM EDT


 

Airport Tracker/Info


-or-


 

Live Flight TrackerFlight Track Log ✈ SWA3206 ✈ 12-May-2013 ✈ KPHL - KMDW

Flight Track Log - Related Links

Times and Time Zones

All times are in EDT time to prevent confusion due to time zone crossing. See the SWA3206 flight status page for this flight to view local times or setup timezone preferences in your user account.

Time Position Orientation Groundspeed Altitude Reporting Facility
EDT Latitude Longitude Course Direction KTS MPH feet Rate Location/Type
11:06AM 39.8667 -75.2667 247° West 144 166 700  Level Philadelphia TRACON
11:07AM 39.8500 -75.3167 247° West 193 222 2,600 2,160 Climbing Philadelphia TRACON
11:08AM 39.8667 -75.3833 288° West 222 255 4,900 2,520 Climbing Philadelphia TRACON
11:09AM 39.9167 -75.4167 333° Northwest 262 302 7,500 3,000 Climbing Philadelphia TRACON
11:10AM 40.0000 -75.4500 343° North 304 350 10,700 2,640 Climbing Philadelphia TRACON
11:11AM 40.0406 -75.4750 335° Northwest 357 411 11,700 1,500 Climbing New York Center
11:12AM 40.1264 -75.5161 340° North 382 440 13,100 2,040 Climbing New York Center
11:13AM 40.2306 -75.5722 338° Northwest 376 433 15,800 1,920 Climbing New York Center
11:14AM 40.2894 -75.6606 311° West 364 419 16,900 540 Climbing New York Center
11:15AM 40.3522 -75.7550 311° West 350 403 16,900 60 Level New York Center
11:16AM 40.4225 -75.8636 310° West 355 409 17,100 1,320 Climbing New York Center
11:17AM 40.4511 -75.9722 289° West 355 409 19,600 2,640 Climbing New York Center
11:18AM 40.4728 -76.0967 283° West 347 399 22,500 2,640 Climbing New York Center
11:19AM 40.4939 -76.2267 282° West 352 405 24,900 1,260 Climbing New York Center
11:20AM 40.5169 -76.3594 283° West 366 421 25,000 960 Climbing New York Center
11:21AM 40.5397 -76.4925 283° West 376 433 26,900 1,740 Climbing New York Center
11:22AM 40.5619 -76.6308 282° West 376 433 28,500 1,680 Climbing New York Center
11:23AM 40.5839 -76.7750 281° West 388 447 30,400 1,860 Climbing New York Center
11:24AM 40.6100 -76.9167 284° West 393 452 32,200 1,680 Climbing New York Center
11:25AM 40.6339 -77.0583 283° West 393 452 33,800 1,380 Climbing New York Center
11:26AM 40.6575 -77.2028 282° West 393 452 35,000 1,200 Climbing New York Center
11:27AM 40.6808 -77.3472 282° West 399 459 36,200 1,080 Climbing New York Center
11:28AM 40.7058 -77.4922 283° West 399 459 37,300 540 Climbing New York Center
11:30AM 40.7597 -77.8444 282° West 409 471 38,000 180 Climbing Cleveland Center
11:31AM 40.7842 -77.9944 282° West 415 478 38,000  Level Cleveland Center
11:32AM 40.8061 -78.1389 281° West 415 478 38,000  Level Cleveland Center
11:33AM 40.8300 -78.2861 282° West 410 472 38,000  Level Cleveland Center
11:34AM 40.8536 -78.4308 282° West 410 472 38,000  Level Cleveland Center
11:35AM 40.8772 -78.5758 282° West 410 472 38,000  Level Cleveland Center
11:36AM 40.8983 -78.7178 281° West 405 466 38,000  Level Cleveland Center
11:37AM 40.9194 -78.8603 281° West 405 466 38,000  Level Cleveland Center
11:38AM 40.9400 -79.0025 281° West 405 466 38,000  Level Cleveland Center
11:39AM 40.9586 -79.1425 280° West 405 466 38,000  Level Cleveland Center
11:40AM 40.9814 -79.2878 282° West 405 466 38,000  Level Cleveland Center
11:41AM 41.0017 -79.4303 281° West 405 466 38,000  Level Cleveland Center
11:42AM 41.0217 -79.5703 281° West 405 466 38,000  Level Cleveland Center
11:43AM 41.0436 -79.7131 282° West 405 466 38,000  Level Cleveland Center
11:44AM 41.0592 -79.8450 279° West 405 466 38,000  Level Cleveland Center
11:45AM 41.0808 -79.9881 281° West 410 472 38,000  Level Cleveland Center
11:46AM 41.1003 -80.1339 280° West 410 472 38,000  Level Cleveland Center
11:47AM 41.1194 -80.2800 280° West 410 472 38,000  Level Cleveland Center
11:48AM 41.1406 -80.4453 280° West 410 472 38,000  Level Cleveland Center
11:49AM 41.1617 -80.5914 281° West 410 472 38,000  Level Cleveland Center
11:50AM 41.1803 -80.7375 280° West 410 472 38,000  Level Cleveland Center
11:51AM 41.1986 -80.8839 279° West 410 472 38,000  Level Cleveland Center
11:52AM 41.2169 -81.0303 279° West 410 472 38,000  Level Cleveland Center
11:53AM 41.2331 -81.1603 279° West 410 472 38,000  Level Cleveland Center
11:54AM 41.2531 -81.3067 280° West 410 472 38,000  Level Cleveland Center
11:55AM 41.2728 -81.4533 280° West 404 465 38,000  Level Cleveland Center
11:56AM 41.2906 -81.6000 279° West 404 465 38,000  Level Cleveland Center
11:57AM 41.3100 -81.7469 280° West 409 471 38,000  Level Cleveland Center
11:58AM 41.3250 -81.8964 278° West 409 471 38,000  Level Cleveland Center
11:59AM 41.3461 -82.0464 281° West 409 471 38,000  Level Cleveland Center
12:00PM 41.3606 -82.2153 277° West 419 482 38,000  Level Cleveland Center
12:01PM 41.3689 -82.3567 275° West 427 491 38,000  Level Cleveland Center
12:02PM 41.3767 -82.5119 274° West 422 486 38,000  Level Cleveland Center
12:03PM 41.3844 -82.6617 274° West 422 486 38,000  Level Cleveland Center
12:04PM 41.3942 -82.8169 275° West 422 486 38,000  Level Cleveland Center
12:05PM 41.4033 -82.9722 275° West 422 486 38,000  Level Cleveland Center
12:06PM 41.4106 -83.1219 274° West 422 486 38,000  Level Cleveland Center
12:07PM 41.4192 -83.2914 274° West 422 486 38,000  Level Cleveland Center
12:08PM 41.4239 -83.4383 273° West 422 486 38,000  Level Cleveland Center
12:09PM 41.4325 -83.5911 274° West 422 486 38,000  Level Cleveland Center
12:10PM 41.4389 -83.7408 273° West 422 486 38,000  Level Cleveland Center
12:11PM 41.4439 -83.8631 273° West 417 480 38,000 -120 Level Cleveland Center
12:13PM 41.4644 -84.2489 274° West 410 472 37,700 -900 Descending Chicago Center
12:14PM 41.4717 -84.3969 274° West 404 465 35,000 -3,240 Descending Chicago Center
12:15PM 41.4778 -84.5761 273° West 404 465 31,100 -2,460 Descending Chicago Center
12:16PM 41.4831 -84.7214 273° West 394 453 30,000 -840 Descending Chicago Center
12:18PM 41.4886 -84.8603 273° West 380 437 29,500 -780 Descending Chicago Center
12:19PM 41.4936 -85.0000 273° West 377 434 28,500 -1,200 Descending Chicago Center
12:20PM 41.4986 -85.1400 273° West 378 435 27,100 -1,380 Descending Chicago Center
12:21PM 41.5031 -85.2728 273° West 362 417 25,700 -1,260 Descending Chicago Center
12:22PM 41.5069 -85.4047 272° West 352 405 24,600 -1,080 Descending Chicago Center
12:23PM 41.5106 -85.5361 272° West 347 399 23,500 -1,020 Descending Chicago Center
12:24PM 41.5142 -85.6650 272° West 345 397 22,500 -1,080 Descending Chicago Center
12:25PM 41.5192 -85.8164 273° West 341 392 21,300 -1,260 Descending Chicago Center
12:26PM 41.5222 -85.9458 272° West 349 402 19,900 -1,800 Descending Chicago Center
12:27PM 41.5247 -86.0703 272° West 338 389 17,700 -2,400 Descending Chicago Center
12:28PM 41.5239 -86.1956 270° West 338 389 15,100 -2,520 Descending Chicago Center
12:29PM 41.5228 -86.3172 269° West 330 380 12,500 -2,100 Descending Chicago Center
12:30PM 41.5219 -86.4361 270° West 322 371 10,800 -1,260 Descending Chicago Center
12:31PM 41.5211 -86.5519 269° West 314 361 10,000 -420 Descending Chicago Center
12:32PM 41.5203 -86.6933 270° West 319 367 10,000  Level Chicago Center
12:33PM 41.5203 -86.8097 270° West 301 346 10,000 -540 Level Chicago Center
12:34PM 41.5186 -86.9058 269° West 264 304 8,900 -1,320 Descending Chicago Center
12:35PM 41.5169 -87.0011 269° West 260 299 7,300 -1,440 Descending Chicago Center
12:36PM 41.5172 -87.0950 270° West 255 293 6,000 -1,080 Descending Chicago Center
12:36PM 41.5167 -87.1333 269° West 249 287 5,900 -840 Descending Chicago TRACON
12:37PM 41.5333 -87.2167 285° West 247 284 5,000 -480 Descending Chicago TRACON
12:38PM 41.5500 -87.2833 288° West 241 277 5,000 -300 Level Chicago TRACON
12:39PM 41.5833 -87.3667 298° West 246 283 4,500 -540 Descending Chicago TRACON
12:40PM 41.6133 -87.4431 298° West 242 278 4,000 -300 Descending Chicago Center
12:41PM 41.6419 -87.5233 296° West 243 280 4,000  Level Chicago Center
12:42PM 41.6689 -87.5925 298° West 230 265 4,000 -360 Level Chicago Center
12:43PM 41.7000 -87.6500 306° West 175 201 3,300 -1,140 Descending Chicago TRACON
12:44PM 41.7333 -87.6833 323° Northwest 163 188 2,000 -1,080 Descending Chicago TRACON
12:45PM 41.7667 -87.7167 323° Northwest 127 146 1,200 -780 Descending Chicago TRACON
12:47PM 41.7833 -87.7500 334° Northwest  Level FlightAware Approximate
12:54PM 41.7860 -87.7524 334° Northwest  Level Estimated